KRAC/RAC METAR and TAF weather

Enter ICAO airport designator
Station Type Date Time Source
KRAC METAR 2021/07/29 17:53 UTC NOAA

KRAC 291753Z AUTO 03013KT 10SM FEW025 SCT038 BKN046 28/21 A2993 RMK AO2 SLP130 T02830211 10283 20228 53000


Station Type Date Time Source
KRAC Decoded METAR 2021/07/29 17:53 UTC NOAA

BATTEN INTERNATIONAL AIRPORT, WI, United States (KRAC) 42-46N 87-49W 203M
Jul 29, 2021 - 01:53 PM EDT / 2021.07.29 1753 UTC
Wind: from the NNE (030 degrees) at 15 MPH (13 KT):0
Visibility: 10 mile(s):0
Sky conditions: mostly cloudy
Temperature: 82.9 F (28.3 C)
Dew Point: 70.0 F (21.1 C)
Relative Humidity: 65%
Pressure (altimeter): 29.93 in. Hg (1013 hPa)
Pressure tendency: 0.00 inches (0.0 hPa) higher than three hours ago
ob: KRAC 291753Z AUTO 03013KT 10SM FEW025 SCT038 BKN046 28/21 A2993 RMK AO2 SLP130 T02830211 10283 20228 53000
cycle: 18

Station Type Date Time Source
KRAC TAF UTC NOAA

Error!

Example: see airport list